createdAt,value
2018-08-24T00:00:41.761Z,89.46
2018-08-24T00:03:10.325Z,90.36
2018-08-24T00:05:38.888Z,90.10
2018-08-24T00:08:07.555Z,89.94
2018-08-24T00:10:36.200Z,90.39
2018-08-24T00:13:04.750Z,90.50
2018-08-24T00:15:33.445Z,89.88
2018-08-24T00:18:02.145Z,90.23
2018-08-24T00:20:30.624Z,90.51
2018-08-24T00:22:59.157Z,90.64
2018-08-24T00:25:27.637Z,90.53
2018-08-24T00:27:56.286Z,90.76
2018-08-24T00:30:24.821Z,91.38
2018-08-24T00:32:53.316Z,90.44
2018-08-24T00:35:22.715Z,90.11
2018-08-24T00:37:51.305Z,90.31
2018-08-24T00:40:19.857Z,90.85
2018-08-24T00:42:48.406Z,90.63
2018-08-24T00:45:16.881Z,90.77
2018-08-24T00:47:45.576Z,90.63
2018-08-24T00:50:14.093Z,91.30
2018-08-24T00:52:42.729Z,91.90
2018-08-24T00:55:11.224Z,91.98
2018-08-24T00:57:39.793Z,92.32
2018-08-24T01:00:08.803Z,92.17
2018-08-24T01:02:37.311Z,92.00
2018-08-24T01:05:06.211Z,91.55
2018-08-24T01:07:40.275Z,92.36
2018-08-24T01:10:14.109Z,91.89
2018-08-24T01:12:42.626Z,92.95
2018-08-24T01:15:12.163Z,92.59
2018-08-24T01:17:45.916Z,93.51
2018-08-24T01:20:14.467Z,92.28
2018-08-24T01:22:42.987Z,92.54
2018-08-24T01:25:11.510Z,93.58
2018-08-24T01:27:39.978Z,92.72
2018-08-24T01:30:08.506Z,93.37
2018-08-24T01:32:37.150Z,92.00
2018-08-24T01:35:05.654Z,92.93
2018-08-24T01:37:34.116Z,92.89
2018-08-24T01:40:02.745Z,92.95
2018-08-24T01:42:31.256Z,92.21
2018-08-24T01:44:59.735Z,92.43
2018-08-24T01:47:28.285Z,92.12
2018-08-24T01:49:56.810Z,92.43
2018-08-24T01:52:25.330Z,92.50
2018-08-24T01:54:53.817Z,91.94
2018-08-24T01:57:22.537Z,92.48
2018-08-24T01:59:51.108Z,92.25
2018-08-24T02:02:19.631Z,91.75
2018-08-24T02:04:48.184Z,91.58
2018-08-24T02:07:16.792Z,91.10
2018-08-24T02:09:45.357Z,91.47
2018-08-24T02:12:19.082Z,92.30
2018-08-24T02:14:47.632Z,91.48
2018-08-24T02:17:21.333Z,91.55
2018-08-24T02:19:55.152Z,91.48
2018-08-24T02:22:23.671Z,91.07
2018-08-24T02:24:52.200Z,90.79
2018-08-24T02:27:20.702Z,90.17
2018-08-24T02:29:52.322Z,90.73
2018-08-24T02:32:20.932Z,91.32
2018-08-24T02:34:49.485Z,91.48
2018-08-24T02:37:17.959Z,92.32
2018-08-24T02:39:46.591Z,91.49
2018-08-24T02:42:15.097Z,91.89
2018-08-24T02:44:43.608Z,91.99
2018-08-24T02:47:14.591Z,91.77
2018-08-24T02:49:43.352Z,91.31
2018-08-24T02:52:11.874Z,91.14
2018-08-24T02:54:40.419Z,90.41
2018-08-24T02:57:08.916Z,91.22
2018-08-24T02:59:37.470Z,90.34
2018-08-24T03:02:06.254Z,90.64
2018-08-24T03:04:34.829Z,91.16
2018-08-24T03:07:03.324Z,90.88
2018-08-24T03:09:31.896Z,91.84
2018-08-24T03:12:00.383Z,90.68
2018-08-24T03:14:29.113Z,91.17
2018-08-24T03:17:02.774Z,91.15
2018-08-24T03:19:31.372Z,91.89
2018-08-24T03:21:59.950Z,91.73
2018-08-24T03:24:28.469Z,91.98
2018-08-24T03:26:56.996Z,91.85
2018-08-24T03:29:25.925Z,91.80
2018-08-24T03:31:54.492Z,91.64
2018-08-24T03:34:23.246Z,91.89
2018-08-24T03:36:51.779Z,91.18
2018-08-24T03:39:20.429Z,90.94
2018-08-24T03:41:49.186Z,91.82
2018-08-24T03:44:17.810Z,91.26
2018-08-24T03:46:46.493Z,91.55
2018-08-24T03:49:14.983Z,91.81
2018-08-24T03:51:43.485Z,91.06
2018-08-24T03:54:15.021Z,91.62
2018-08-24T03:56:44.637Z,91.55
2018-08-24T03:59:13.529Z,91.00
2018-08-24T04:01:42.178Z,90.15
2018-08-24T04:04:10.853Z,90.44
2018-08-24T04:06:39.598Z,90.14
2018-08-24T04:09:08.124Z,90.39
2018-08-24T04:11:36.993Z,89.66
2018-08-24T04:14:05.528Z,89.90
2018-08-24T04:16:38.206Z,89.64
2018-08-24T04:19:10.857Z,89.90
2018-08-24T04:21:39.383Z,89.54
2018-08-24T04:24:08.190Z,89.89
2018-08-24T04:26:36.848Z,90.19
2018-08-24T04:29:05.368Z,90.06
2018-08-24T04:31:33.876Z,90.23
2018-08-24T04:34:02.605Z,89.86
2018-08-24T04:36:32.611Z,89.88
2018-08-24T04:39:01.236Z,89.64
2018-08-24T04:41:29.734Z,89.67
2018-08-24T04:43:58.352Z,89.49
2018-08-24T04:46:27.094Z,88.77
2018-08-24T04:48:55.625Z,89.51
2018-08-24T04:51:24.343Z,88.86
2018-08-24T04:53:52.822Z,89.50
2018-08-24T04:56:21.282Z,88.91
2018-08-24T04:58:49.947Z,88.33
2018-08-24T05:01:18.648Z,89.03
2018-08-24T05:03:47.247Z,89.30
2018-08-24T05:06:15.733Z,89.05
2018-08-24T05:08:45.177Z,89.37
2018-08-24T05:11:13.681Z,88.46
2018-08-24T05:13:42.492Z,89.40
2018-08-24T05:16:11.167Z,89.02
2018-08-24T05:18:39.640Z,87.89
2018-08-24T05:21:08.553Z,88.85
2018-08-24T05:23:36.974Z,89.41
2018-08-24T05:26:05.478Z,88.91
2018-08-24T05:28:33.969Z,89.07
2018-08-24T05:31:02.597Z,88.41
2018-08-24T05:33:31.147Z,88.96
2018-08-24T05:35:59.864Z,88.82
2018-08-24T05:38:28.713Z,89.25
2018-08-24T05:40:57.419Z,88.74
2018-08-24T05:43:25.869Z,88.59
2018-08-24T05:45:54.677Z,89.42
2018-08-24T05:48:24.790Z,88.98
2018-08-24T05:50:53.532Z,90.39
2018-08-24T05:53:22.215Z,89.44
2018-08-24T05:55:50.713Z,88.91
2018-08-24T05:58:19.255Z,90.58
2018-08-24T06:00:47.901Z,89.33
2018-08-24T06:03:16.438Z,89.81
2018-08-24T06:05:50.453Z,89.68
2018-08-24T06:08:18.905Z,89.36
2018-08-24T06:10:47.671Z,89.87
2018-08-24T06:13:18.090Z,89.55
2018-08-24T06:15:48.497Z,89.42
2018-08-24T06:18:17.137Z,88.75
2018-08-24T06:20:45.645Z,88.96
2018-08-24T06:23:15.789Z,89.28
2018-08-24T06:25:44.349Z,88.22
2018-08-24T06:28:12.875Z,89.14
2018-08-24T06:30:42.373Z,88.74
2018-08-24T06:33:10.894Z,88.25
2018-08-24T06:35:39.572Z,88.89
2018-08-24T06:38:08.409Z,88.78
2018-08-24T06:40:36.962Z,88.14
2018-08-24T06:43:05.709Z,87.95
2018-08-24T06:45:34.328Z,88.03
2018-08-24T06:48:02.948Z,88.64
2018-08-24T06:50:31.524Z,87.69
2018-08-24T06:53:00.212Z,87.46
2018-08-24T06:55:28.905Z,87.50
2018-08-24T06:57:57.468Z,87.81
2018-08-24T07:00:30.428Z,87.48
2018-08-24T07:02:59.544Z,87.36
2018-08-24T07:05:28.194Z,87.24
2018-08-24T07:07:57.069Z,87.01
2018-08-24T07:10:26.008Z,86.50
2018-08-24T07:12:54.709Z,86.26
2018-08-24T07:15:23.244Z,84.60
2018-08-24T07:17:56.994Z,84.92
2018-08-24T07:20:25.581Z,84.91
2018-08-24T07:22:54.166Z,83.60
2018-08-24T07:25:22.724Z,85.01
2018-08-24T07:27:51.270Z,84.47
2018-08-24T07:30:20.546Z,84.24
2018-08-24T07:32:49.016Z,85.81
2018-08-24T07:35:17.597Z,84.61
2018-08-24T07:37:46.273Z,84.10
2018-08-24T07:40:14.813Z,84.79
2018-08-24T07:42:43.348Z,83.96
2018-08-24T07:45:11.910Z,82.76
2018-08-24T07:47:40.393Z,82.40
2018-08-24T07:50:09.009Z,81.94
2018-08-24T07:52:37.514Z,79.68
2018-08-24T07:55:06.154Z,81.83
2018-08-24T07:57:34.869Z,78.14
2018-08-24T08:00:04.164Z,80.30
2018-08-24T08:02:38.272Z,78.86
2018-08-24T08:05:06.823Z,78.15
2018-08-24T08:07:35.862Z,77.13
2018-08-24T08:10:04.484Z,73.97
2018-08-24T08:12:33.106Z,74.50
2018-08-24T08:15:08.660Z,74.23
2018-08-24T08:17:38.048Z,70.83
2018-08-24T08:20:07.168Z,72.16
2018-08-24T08:22:35.674Z,72.58
2018-08-24T08:25:04.300Z,68.21
2018-08-24T08:27:33.544Z,67.54
2018-08-24T08:30:03.804Z,67.29
2018-08-24T08:32:32.852Z,66.63
2018-08-24T08:35:01.609Z,64.88
2018-08-24T08:37:30.217Z,64.06
2018-08-24T08:39:59.483Z,63.78
2018-08-24T08:42:28.493Z,64.42
2018-08-24T08:44:57.164Z,64.58
2018-08-24T08:47:26.085Z,63.76
2018-08-24T08:49:54.609Z,61.68
2018-08-24T08:52:23.145Z,62.93
2018-08-24T08:54:52.068Z,64.10
2018-08-24T08:57:20.701Z,59.78
2018-08-24T08:59:49.503Z,59.01
2018-08-24T09:02:18.065Z,59.16
2018-08-24T09:04:46.598Z,58.05
2018-08-24T09:07:15.109Z,58.87
2018-08-24T09:09:44.157Z,60.14
2018-08-24T09:12:12.803Z,56.29
2018-08-24T09:14:41.320Z,56.85
2018-08-24T09:17:15.012Z,52.93
2018-08-24T09:19:48.964Z,53.45
2018-08-24T09:22:22.742Z,52.55
2018-08-24T09:24:56.545Z,54.71
2018-08-24T09:27:32.196Z,52.39
2018-08-24T09:30:02.898Z,51.06
2018-08-24T09:32:31.614Z,51.93
2018-08-24T09:35:00.333Z,52.22
2018-08-24T09:37:37.220Z,51.19
2018-08-24T09:40:06.765Z,49.09
2018-08-24T09:42:35.312Z,51.90
2018-08-24T09:45:03.996Z,50.82
2018-08-24T09:47:37.796Z,50.98
2018-08-24T09:50:12.099Z,50.56
2018-08-24T09:52:40.691Z,50.90
2018-08-24T09:55:09.274Z,50.65
2018-08-24T09:57:37.846Z,51.67
2018-08-24T10:00:06.752Z,52.37
2018-08-24T10:02:40.499Z,54.04
2018-08-24T10:05:14.425Z,53.75
2018-08-24T10:07:48.328Z,52.59
2018-08-24T10:10:16.919Z,54.45
2018-08-24T10:12:45.456Z,53.33
2018-08-24T10:15:14.268Z,52.96
2018-08-24T10:17:42.898Z,50.21
2018-08-24T10:20:11.845Z,51.00
2018-08-24T10:22:40.440Z,49.32
2018-08-24T10:25:08.925Z,48.18
2018-08-24T10:27:37.453Z,45.93
2018-08-24T10:30:06.548Z,46.73
2018-08-24T10:32:35.332Z,48.49
2018-08-24T10:35:03.853Z,46.79
2018-08-24T10:37:32.355Z,49.54
2018-08-24T10:40:00.867Z,48.44
2018-08-24T10:42:29.342Z,47.97
2018-08-24T10:44:57.826Z,49.46
2018-08-24T10:47:26.535Z,49.31
2018-08-24T10:49:54.993Z,48.85
2018-08-24T10:52:24.364Z,49.76
2018-08-24T10:54:52.878Z,48.00
2018-08-24T10:57:21.376Z,47.10
2018-08-24T10:59:49.888Z,47.71
2018-08-24T11:02:18.382Z,45.78
2018-08-24T11:04:46.897Z,45.51
2018-08-24T11:07:15.515Z,43.97
2018-08-24T11:09:44.008Z,45.69
2018-08-24T11:12:12.495Z,44.21
2018-08-24T11:14:41.093Z,43.74
2018-08-24T11:17:09.836Z,45.58
2018-08-24T11:19:38.379Z,46.01
2018-08-24T11:22:07.025Z,46.08
2018-08-24T11:24:35.533Z,46.13
2018-08-24T11:27:04.172Z,47.60
2018-08-24T11:29:32.788Z,47.20
2018-08-24T11:32:01.354Z,46.19
2018-08-24T11:34:29.866Z,45.83
2018-08-24T11:36:58.496Z,46.14
2018-08-24T11:39:27.017Z,42.72
2018-08-24T11:41:55.633Z,43.11
2018-08-24T11:44:24.224Z,41.85
2018-08-24T11:46:52.867Z,40.55
2018-08-24T11:49:21.346Z,41.56
2018-08-24T11:51:49.887Z,41.57
2018-08-24T11:54:18.522Z,41.06
2018-08-24T11:56:47.221Z,43.38
2018-08-24T11:59:15.710Z,43.26
2018-08-24T12:01:44.185Z,44.10
2018-08-24T12:04:12.690Z,44.21
2018-08-24T12:06:41.301Z,44.04
2018-08-24T12:09:10.531Z,44.08
2018-08-24T12:11:39.181Z,42.98
2018-08-24T12:14:07.816Z,42.99
2018-08-24T12:16:36.475Z,42.96
2018-08-24T12:19:05.021Z,42.98
2018-08-24T12:21:33.597Z,44.23
2018-08-24T12:24:02.293Z,44.19
2018-08-24T12:26:30.836Z,42.77
2018-08-24T12:28:59.519Z,43.46
2018-08-24T12:31:29.131Z,43.71
2018-08-24T12:33:57.798Z,42.65
2018-08-24T12:36:26.432Z,43.59
2018-08-24T12:38:54.966Z,42.58
2018-08-24T12:41:23.585Z,41.22
2018-08-24T12:43:52.031Z,38.97
2018-08-24T12:46:20.523Z,38.16
2018-08-24T12:48:49.058Z,39.41
2018-08-24T12:51:17.595Z,41.39
2018-08-24T12:53:46.098Z,43.53
2018-08-24T12:56:20.007Z,43.57
2018-08-24T12:58:49.128Z,45.00
2018-08-24T13:01:18.124Z,45.63
2018-08-24T13:03:46.628Z,45.06
2018-08-24T13:06:15.241Z,46.68
2018-08-24T13:08:44.388Z,44.36
2018-08-24T13:11:13.553Z,43.43
2018-08-24T13:13:42.486Z,43.39
2018-08-24T13:16:11.125Z,42.63
2018-08-24T13:18:39.747Z,44.18
2018-08-24T13:21:08.353Z,43.05
2018-08-24T13:23:37.026Z,44.30
2018-08-24T13:26:05.613Z,41.77
2018-08-24T13:28:34.156Z,41.59
2018-08-24T13:31:02.635Z,43.61
2018-08-24T13:33:31.210Z,42.59
2018-08-24T13:35:59.704Z,44.98
2018-08-24T13:38:28.224Z,45.39
2018-08-24T13:40:56.763Z,45.72
2018-08-24T13:43:25.285Z,45.92
2018-08-24T13:45:53.835Z,45.50
2018-08-24T13:48:22.374Z,44.77
2018-08-24T13:50:51.098Z,48.79
2018-08-24T13:53:19.676Z,49.34
2018-08-24T13:55:48.213Z,49.81
2018-08-24T13:58:16.734Z,49.13
2018-08-24T14:00:45.259Z,45.27
2018-08-24T14:03:13.744Z,42.86
2018-08-24T14:05:42.288Z,40.70
2018-08-24T14:08:10.808Z,39.03
2018-08-24T14:10:39.871Z,36.95
2018-08-24T14:13:08.492Z,40.59
2018-08-24T14:15:36.965Z,40.64
2018-08-24T14:18:05.487Z,41.85
2018-08-24T14:20:34.830Z,48.62
2018-08-24T14:23:03.309Z,55.67
2018-08-24T14:25:31.841Z,60.13
2018-08-24T14:28:00.331Z,64.43
2018-08-24T14:30:28.844Z,64.65
2018-08-24T14:32:57.331Z,62.62
2018-08-24T14:35:25.995Z,59.84
2018-08-24T14:37:54.498Z,61.77
2018-08-24T14:40:23.023Z,58.59
2018-08-24T14:42:51.525Z,60.14
2018-08-24T14:45:20.269Z,58.25
2018-08-24T14:47:48.808Z,60.69
2018-08-24T14:50:17.386Z,56.50
2018-08-24T14:52:45.902Z,56.50
2018-08-24T14:55:14.423Z,55.85
2018-08-24T14:57:43.359Z,53.34
2018-08-24T15:00:12.008Z,55.63
2018-08-24T15:02:40.741Z,53.61
2018-08-24T15:05:11.190Z,52.74
2018-08-24T15:07:40.173Z,51.67
2018-08-24T15:10:09.965Z,52.76
2018-08-24T15:12:38.872Z,52.23
2018-08-24T15:15:08.077Z,50.95
2018-08-24T15:17:36.701Z,53.27
2018-08-24T15:20:06.062Z,53.27
2018-08-24T15:22:34.873Z,51.00
2018-08-24T15:25:03.461Z,51.43
2018-08-24T15:27:32.041Z,52.33
2018-08-24T15:30:00.767Z,52.51
2018-08-24T15:32:29.309Z,53.67
2018-08-24T15:34:57.876Z,53.92
2018-08-24T15:37:28.119Z,52.74
2018-08-24T15:39:56.633Z,54.14
2018-08-24T15:42:25.134Z,54.20
2018-08-24T15:44:53.697Z,51.15
2018-08-24T15:47:22.199Z,52.99
2018-08-24T15:49:51.176Z,52.38
2018-08-24T15:52:19.700Z,53.24
2018-08-24T15:54:48.182Z,57.39
2018-08-24T15:57:16.900Z,62.38
2018-08-24T15:59:45.424Z,64.92
2018-08-24T16:02:13.918Z,67.11
2018-08-24T16:04:42.422Z,64.42
2018-08-24T16:07:10.964Z,67.97
2018-08-24T16:09:39.588Z,66.28
2018-08-24T16:12:08.211Z,67.97
2018-08-24T16:14:36.687Z,66.57
2018-08-24T16:17:05.417Z,63.47
2018-08-24T16:19:33.923Z,65.00
2018-08-24T16:22:02.419Z,65.66
2018-08-24T16:24:30.917Z,65.66
2018-08-24T16:26:59.694Z,66.14
2018-08-24T16:29:28.170Z,65.46
2018-08-24T16:31:56.656Z,66.25
2018-08-24T16:34:25.210Z,65.10
2018-08-24T16:36:53.744Z,65.83
2018-08-24T16:39:22.432Z,67.49
2018-08-24T16:41:51.079Z,67.32
2018-08-24T16:44:19.595Z,66.64
2018-08-24T16:46:48.347Z,65.00
2018-08-24T16:49:16.810Z,65.99
2018-08-24T16:51:45.367Z,65.39
2018-08-24T16:54:14.238Z,66.56
2018-08-24T16:56:42.855Z,64.75
2018-08-24T16:59:11.450Z,64.52
2018-08-24T17:01:40.809Z,66.10
2018-08-24T17:04:09.295Z,65.84
2018-08-24T17:06:37.810Z,62.96
2018-08-24T17:09:09.590Z,63.18
2018-08-24T17:11:38.201Z,63.40
2018-08-24T17:14:07.824Z,62.21
2018-08-24T17:16:36.680Z,64.31
2018-08-24T17:19:05.246Z,61.81
2018-08-24T17:21:33.912Z,61.24
2018-08-24T17:24:02.639Z,62.35
2018-08-24T17:26:31.153Z,59.45
2018-08-24T17:28:59.690Z,60.01
2018-08-24T17:31:28.233Z,58.36
2018-08-24T17:33:56.746Z,59.36
2018-08-24T17:36:25.270Z,59.36
2018-08-24T17:38:53.905Z,57.62
2018-08-24T17:41:22.594Z,57.42
2018-08-24T17:43:51.522Z,57.86
2018-08-24T17:46:19.994Z,59.04
2018-08-24T17:48:48.542Z,58.32
2018-08-24T17:51:17.214Z,57.47
2018-08-24T17:53:45.733Z,57.49
2018-08-24T17:56:14.369Z,57.71
2018-08-24T17:58:42.938Z,55.60
2018-08-24T18:01:11.522Z,55.69
2018-08-24T18:03:40.143Z,55.83
2018-08-24T18:06:08.649Z,56.59
2018-08-24T18:08:37.553Z,56.84
2018-08-24T18:11:06.098Z,54.96
2018-08-24T18:13:34.661Z,54.66
2018-08-24T18:16:03.560Z,52.78
2018-08-24T18:18:32.179Z,53.89
2018-08-24T18:21:00.741Z,54.82
2018-08-24T18:23:29.247Z,56.22
2018-08-24T18:25:57.756Z,54.80
2018-08-24T18:28:26.316Z,54.45
2018-08-24T18:30:54.893Z,55.29
2018-08-24T18:33:23.557Z,55.35
2018-08-24T18:35:52.179Z,54.55
2018-08-24T18:38:20.668Z,54.63
2018-08-24T18:40:49.245Z,55.67
2018-08-24T18:43:18.125Z,55.90
2018-08-24T18:45:46.780Z,53.72
2018-08-24T18:48:15.516Z,54.86
2018-08-24T18:50:44.376Z,53.30
2018-08-24T18:53:12.909Z,53.46
2018-08-24T18:55:41.460Z,55.20
2018-08-24T18:58:10.549Z,55.08
2018-08-24T19:00:39.381Z,53.91
2018-08-24T19:03:08.509Z,53.91
2018-08-24T19:05:37.089Z,54.81
2018-08-24T19:08:10.556Z,56.77
2018-08-24T19:10:44.761Z,55.38
2018-08-24T19:13:15.333Z,55.36
2018-08-24T19:15:45.246Z,56.02
2018-08-24T19:18:19.101Z,56.33
2018-08-24T19:20:53.181Z,56.30
2018-08-24T19:23:21.779Z,57.83
2018-08-24T19:25:50.856Z,57.48
2018-08-24T19:28:24.740Z,57.24
2018-08-24T19:30:53.277Z,58.22
2018-08-24T19:33:21.821Z,59.81
2018-08-24T19:35:50.779Z,59.48
2018-08-24T19:38:19.312Z,59.11
2018-08-24T19:40:52.989Z,61.36
2018-08-24T19:43:21.550Z,61.79
2018-08-24T19:45:50.375Z,61.61
2018-08-24T19:48:24.197Z,61.57
2018-08-24T19:50:52.825Z,61.89
2018-08-24T19:53:21.390Z,63.31
2018-08-24T19:55:49.924Z,63.58
2018-08-24T19:58:23.793Z,62.72
2018-08-24T20:00:52.474Z,63.51
2018-08-24T20:03:20.963Z,63.58
2018-08-24T20:05:54.650Z,63.72
2018-08-24T20:08:28.395Z,64.12
2018-08-24T20:10:56.959Z,65.00
2018-08-24T20:13:25.458Z,64.76
2018-08-24T20:15:59.289Z,64.43
2018-08-24T20:18:27.808Z,64.92
2018-08-24T20:20:56.495Z,65.83
2018-08-24T20:23:25.095Z,67.33
2018-08-24T20:25:53.738Z,69.12
2018-08-24T20:28:22.352Z,68.55
2018-08-24T20:30:51.058Z,67.01
2018-08-24T20:33:19.603Z,67.19
2018-08-24T20:35:48.205Z,67.42
2018-08-24T20:38:17.433Z,69.40
2018-08-24T20:40:46.064Z,69.92
2018-08-24T20:43:14.926Z,70.27
2018-08-24T20:45:43.589Z,70.46
2018-08-24T20:48:12.086Z,70.52
2018-08-24T20:50:40.634Z,70.93
2018-08-24T20:53:10.182Z,70.46
2018-08-24T20:55:39.091Z,70.76
2018-08-24T20:58:07.486Z,70.61
2018-08-24T21:00:36.020Z,71.07
2018-08-24T21:03:04.682Z,70.09
2018-08-24T21:05:33.162Z,69.50
2018-08-24T21:08:01.714Z,69.50
2018-08-24T21:10:30.340Z,68.89
2018-08-24T21:12:59.124Z,68.53
2018-08-24T21:15:27.601Z,69.23
2018-08-24T21:17:56.378Z,70.95
2018-08-24T21:20:24.961Z,70.76
2018-08-24T21:22:53.465Z,68.98
2018-08-24T21:25:22.193Z,69.89
2018-08-24T21:27:50.729Z,69.17
2018-08-24T21:30:19.362Z,69.88
2018-08-24T21:32:47.797Z,70.88
2018-08-24T21:35:16.315Z,69.17
2018-08-24T21:37:44.928Z,70.38
2018-08-24T21:40:13.712Z,71.03
2018-08-24T21:42:42.237Z,73.23
2018-08-24T21:45:11.218Z,73.36
2018-08-24T21:47:39.829Z,73.59
2018-08-24T21:50:08.421Z,73.95
2018-08-24T21:52:37.018Z,73.96
2018-08-24T21:55:05.847Z,74.00
2018-08-24T21:57:34.335Z,74.90
2018-08-24T22:00:03.037Z,75.00
2018-08-24T22:02:31.558Z,73.91
2018-08-24T22:05:00.143Z,72.43
2018-08-24T22:07:28.681Z,70.42
2018-08-24T22:09:57.599Z,70.32
2018-08-24T22:12:26.154Z,69.29
2018-08-24T22:14:54.678Z,68.42
2018-08-24T22:17:23.148Z,67.88
2018-08-24T22:19:51.861Z,67.25
2018-08-24T22:22:20.393Z,68.73
2018-08-24T22:24:48.979Z,67.75
2018-08-24T22:27:17.643Z,68.41
2018-08-24T22:29:46.289Z,67.96
2018-08-24T22:32:14.857Z,68.30
2018-08-24T22:34:43.541Z,67.66
2018-08-24T22:37:12.455Z,67.74
2018-08-24T22:39:41.032Z,67.97
2018-08-24T22:42:09.540Z,68.31
2018-08-24T22:44:38.180Z,68.68
2018-08-24T22:47:06.772Z,67.67
2018-08-24T22:49:36.528Z,68.01
2018-08-24T22:52:05.042Z,68.94
2018-08-24T22:54:33.607Z,69.36
2018-08-24T22:57:02.257Z,69.05
2018-08-24T22:59:31.142Z,68.31
2018-08-24T23:01:59.977Z,69.23
2018-08-24T23:04:28.569Z,68.83
2018-08-24T23:06:57.073Z,69.86
2018-08-24T23:09:25.577Z,70.41
2018-08-24T23:11:54.059Z,71.18
2018-08-24T23:14:22.861Z,70.90
2018-08-24T23:16:51.412Z,70.31
2018-08-24T23:19:19.950Z,69.75
2018-08-24T23:21:48.555Z,71.22
2018-08-24T23:24:17.043Z,71.54
2018-08-24T23:26:45.577Z,70.95
2018-08-24T23:29:14.087Z,72.12
2018-08-24T23:31:42.639Z,71.92
2018-08-24T23:34:11.328Z,69.85
2018-08-24T23:36:39.790Z,68.99
2018-08-24T23:39:09.493Z,70.39
2018-08-24T23:41:37.992Z,70.56
2018-08-24T23:44:06.638Z,69.36
2018-08-24T23:46:35.175Z,69.73
2018-08-24T23:49:03.683Z,70.36
2018-08-24T23:51:32.310Z,71.19
2018-08-24T23:54:00.892Z,70.53
2018-08-24T23:56:29.376Z,71.25
2018-08-24T23:58:57.895Z,70.29
